createdAt,value
2018-12-17T00:01:03.458Z,30.67
2018-12-17T00:03:32.097Z,30.70
2018-12-17T00:06:00.317Z,30.77
2018-12-17T00:08:32.019Z,28.57
2018-12-17T00:10:59.196Z,29.63
2018-12-17T00:13:27.417Z,28.67
2018-12-17T00:15:55.583Z,28.07
2018-12-17T00:18:23.656Z,31.23
2018-12-17T00:20:51.857Z,30.87
2018-12-17T00:23:19.937Z,28.93
2018-12-17T00:25:48.076Z,29.77
2018-12-17T00:28:16.197Z,27.63
2018-12-17T00:30:44.339Z,30.03
2018-12-17T00:33:12.418Z,27.30
2018-12-17T00:35:40.577Z,27.33
2018-12-17T00:38:08.657Z,26.10
2018-12-17T00:40:40.998Z,27.47
2018-12-17T00:43:09.117Z,25.67
2018-12-17T00:45:37.250Z,25.83
2018-12-17T00:48:05.437Z,25.17
2018-12-17T00:50:33.537Z,23.97
2018-12-17T00:53:01.697Z,24.03
2018-12-17T00:55:29.857Z,25.27
2018-12-17T00:57:57.977Z,23.03
2018-12-17T01:00:26.137Z,23.33
2018-12-17T01:02:54.338Z,23.03
2018-12-17T01:05:22.417Z,22.70
2018-12-17T01:07:50.550Z,27.67
2018-12-17T01:10:19.077Z,26.80
2018-12-17T01:12:47.258Z,28.50
2018-12-17T01:15:15.440Z,28.03
2018-12-17T01:17:43.659Z,28.23
2018-12-17T01:20:11.817Z,27.40
2018-12-17T01:22:39.998Z,28.43
2018-12-17T01:25:08.217Z,27.93
2018-12-17T01:27:36.338Z,26.67
2018-12-17T01:30:05.459Z,26.60
2018-12-17T01:32:33.819Z,26.73
2018-12-17T01:35:01.929Z,27.97
2018-12-17T01:37:30.337Z,27.07
2018-12-17T01:39:58.400Z,27.80
2018-12-17T01:42:26.637Z,26.97
2018-12-17T01:44:54.617Z,26.70
2018-12-17T01:47:23.237Z,26.30
2018-12-17T01:49:51.321Z,25.17
2018-12-17T01:52:19.376Z,25.30
2018-12-17T01:54:47.477Z,25.23
2018-12-17T01:57:15.717Z,25.40
2018-12-17T01:59:43.757Z,25.60
2018-12-17T02:02:11.980Z,24.13
2018-12-17T02:04:41.657Z,23.97
2018-12-17T02:07:10.037Z,21.30
2018-12-17T02:09:38.278Z,20.13
2018-12-17T02:12:06.441Z,19.47
2018-12-17T02:14:36.739Z,17.83
2018-12-17T02:17:05.257Z,24.33
2018-12-17T02:19:33.637Z,25.00
2018-12-17T02:22:01.917Z,26.23
2018-12-17T02:24:30.236Z,25.43
2018-12-17T02:26:58.916Z,27.07
2018-12-17T02:29:27.359Z,24.23
2018-12-17T02:31:55.818Z,25.03
2018-12-17T02:34:25.077Z,22.90
2018-12-17T02:36:54.297Z,25.23
2018-12-17T02:39:22.637Z,22.00
2018-12-17T02:41:51.437Z,22.23
2018-12-17T02:44:21.298Z,23.60
2018-12-17T02:46:49.860Z,23.23
2018-12-17T02:49:18.678Z,22.83
2018-12-17T02:51:47.377Z,23.67
2018-12-17T02:54:16.300Z,22.87
2018-12-17T02:56:44.716Z,22.93
2018-12-17T02:59:13.337Z,21.17
2018-12-17T03:01:42.016Z,17.57
2018-12-17T03:04:13.176Z,21.17
2018-12-17T03:06:41.697Z,19.97
2018-12-17T03:09:10.017Z,15.63
2018-12-17T03:11:38.416Z,18.60
2018-12-17T03:14:06.859Z,19.13
2018-12-17T03:16:36.216Z,20.40
2018-12-17T03:19:04.597Z,22.33
2018-12-17T03:21:32.724Z,26.83
2018-12-17T03:24:01.359Z,26.27
2018-12-17T03:26:29.657Z,24.10
2018-12-17T03:28:58.038Z,25.03
2018-12-17T03:31:26.538Z,24.63
2018-12-17T03:33:55.217Z,24.83
2018-12-17T03:36:23.717Z,24.40
2018-12-17T03:38:52.057Z,24.00
2018-12-17T03:41:21.740Z,23.23
2018-12-17T03:43:50.677Z,23.47
2018-12-17T03:46:19.169Z,22.43
2018-12-17T03:48:47.597Z,22.17
2018-12-17T03:51:16.159Z,19.47
2018-12-17T03:53:44.829Z,23.07
2018-12-17T03:56:14.388Z,23.20
2018-12-17T03:58:43.128Z,21.30
2018-12-17T04:01:11.637Z,19.63
2018-12-17T04:03:41.257Z,20.47
2018-12-17T04:06:09.870Z,20.20
2018-12-17T04:08:38.136Z,20.67
2018-12-17T04:11:06.816Z,20.87
2018-12-17T04:13:35.636Z,20.27
2018-12-17T04:16:04.377Z,20.37
2018-12-17T04:18:33.156Z,19.40
2018-12-17T04:21:01.708Z,19.77
2018-12-17T04:23:30.577Z,18.53
2018-12-17T04:25:59.229Z,18.03
2018-12-17T04:28:28.028Z,18.93
2018-12-17T04:30:57.089Z,18.40
2018-12-17T04:33:26.368Z,18.80
2018-12-17T04:35:56.388Z,17.40
2018-12-17T04:38:25.249Z,18.97
2018-12-17T04:40:53.909Z,16.93
2018-12-17T04:43:22.618Z,19.13
2018-12-17T04:45:52.366Z,18.13
2018-12-17T04:48:21.377Z,16.50
2018-12-17T04:50:49.936Z,17.07
2018-12-17T04:53:19.676Z,16.63
2018-12-17T04:55:51.738Z,16.93
2018-12-17T04:58:20.229Z,17.40
2018-12-17T05:00:48.810Z,16.87
2018-12-17T05:03:17.149Z,18.20
2018-12-17T05:05:45.678Z,16.07
2018-12-17T05:08:14.188Z,16.83
2018-12-17T05:10:42.568Z,17.43
2018-12-17T05:13:11.029Z,15.80
2018-12-17T05:15:39.529Z,17.33
2018-12-17T05:18:07.951Z,16.80
2018-12-17T05:20:36.270Z,18.40
2018-12-17T05:23:04.528Z,17.97
2018-12-17T05:25:32.829Z,19.97
2018-12-17T05:28:01.189Z,17.80
2018-12-17T05:30:29.669Z,18.43
2018-12-17T05:32:58.517Z,17.77
2018-12-17T05:35:28.270Z,17.60
2018-12-17T05:37:57.097Z,16.63
2018-12-17T05:40:29.837Z,16.23
2018-12-17T05:42:59.478Z,16.13
2018-12-17T05:45:34.097Z,15.37
2018-12-17T05:48:02.909Z,15.57
2018-12-17T05:50:31.288Z,16.50
2018-12-17T05:52:59.469Z,16.10
2018-12-17T05:55:28.051Z,17.07
2018-12-17T05:57:56.416Z,16.90
2018-12-17T06:00:26.028Z,16.97
2018-12-17T06:02:54.316Z,16.73
2018-12-17T06:05:22.616Z,15.67
2018-12-17T06:07:50.896Z,16.87
2018-12-17T06:10:19.317Z,17.07
2018-12-17T06:12:48.156Z,16.03
2018-12-17T06:15:17.316Z,16.57
2018-12-17T06:17:49.865Z,15.30
2018-12-17T06:20:19.960Z,16.37
2018-12-17T06:22:51.576Z,15.67
2018-12-17T06:25:20.239Z,15.00
2018-12-17T06:27:48.877Z,15.90
2018-12-17T06:30:17.437Z,16.17
2018-12-17T06:32:45.877Z,17.87
2018-12-17T06:35:14.376Z,17.57
2018-12-17T06:37:43.997Z,17.00
2018-12-17T06:40:12.537Z,16.00
2018-12-17T06:42:40.877Z,16.73
2018-12-17T06:45:09.289Z,15.87
2018-12-17T06:47:37.577Z,16.73
2018-12-17T06:50:07.648Z,17.13
2018-12-17T06:52:36.268Z,15.77
2018-12-17T06:55:05.862Z,16.23
2018-12-17T06:57:34.576Z,15.67
2018-12-17T07:00:02.736Z,16.13
2018-12-17T07:02:31.137Z,15.13
2018-12-17T07:04:59.957Z,16.00
2018-12-17T07:07:28.079Z,17.50
2018-12-17T07:09:56.477Z,16.60
2018-12-17T07:12:24.916Z,16.33
2018-12-17T07:14:53.196Z,17.37
2018-12-17T07:17:21.649Z,16.70
2018-12-17T07:19:49.816Z,18.10
2018-12-17T07:22:17.998Z,18.00
2018-12-17T07:24:46.216Z,19.00
2018-12-17T07:27:14.456Z,19.67
2018-12-17T07:29:49.566Z,18.70
2018-12-17T07:32:13.177Z,20.57
2018-12-17T07:34:41.496Z,21.23
2018-12-17T07:37:09.836Z,20.30
2018-12-17T07:39:39.277Z,21.80
2018-12-17T07:42:07.497Z,19.00
2018-12-17T07:44:36.017Z,22.43
2018-12-17T07:47:04.157Z,20.30
2018-12-17T07:49:32.237Z,20.23
2018-12-17T07:52:00.377Z,20.03
2018-12-17T07:54:43.717Z,19.93
2018-12-17T07:57:11.829Z,21.27
2018-12-17T07:59:39.929Z,22.87
2018-12-17T08:02:08.117Z,21.90
2018-12-17T08:04:37.137Z,21.30
2018-12-17T08:07:05.697Z,20.43
2018-12-17T08:09:33.817Z,20.57
2018-12-17T08:12:01.989Z,20.93
2018-12-17T08:14:30.106Z,22.33
2018-12-17T08:17:02.099Z,22.87
2018-12-17T08:19:30.325Z,19.87
2018-12-17T08:21:58.391Z,21.00
2018-12-17T08:24:26.729Z,19.03
2018-12-17T08:26:54.857Z,19.10
2018-12-17T08:29:23.066Z,18.50
2018-12-17T08:31:51.181Z,18.23
2018-12-17T08:34:19.321Z,19.10
2018-12-17T08:36:47.425Z,18.23
2018-12-17T08:39:15.588Z,18.13
2018-12-17T08:41:43.725Z,17.60
2018-12-17T08:44:11.889Z,16.40
2018-12-17T08:46:40.009Z,18.60
2018-12-17T08:49:08.177Z,18.07
2018-12-17T08:51:36.351Z,18.07
2018-12-17T08:54:05.098Z,19.93
2018-12-17T08:56:33.205Z,16.77
2018-12-17T08:59:01.349Z,17.37
2018-12-17T09:01:29.557Z,17.27
2018-12-17T09:03:57.820Z,15.33
2018-12-17T09:06:25.971Z,16.20
2018-12-17T09:08:54.264Z,16.07
2018-12-17T09:11:22.377Z,15.77
2018-12-17T09:13:50.565Z,14.10
2018-12-17T09:16:18.685Z,14.40
2018-12-17T09:18:46.898Z,13.93
2018-12-17T09:21:15.105Z,14.17
2018-12-17T09:23:43.409Z,12.47
2018-12-17T09:26:11.509Z,12.60
2018-12-17T09:28:45.089Z,13.00
2018-12-17T09:31:13.250Z,12.67
2018-12-17T09:33:41.538Z,13.07
2018-12-17T09:36:09.760Z,11.63
2018-12-17T09:38:38.777Z,12.03
2018-12-17T09:41:06.985Z,12.93
2018-12-17T09:43:35.269Z,13.67
2018-12-17T09:46:03.330Z,13.83
2018-12-17T09:48:31.528Z,12.33
2018-12-17T09:50:59.642Z,11.27
2018-12-17T09:53:27.709Z,12.27
2018-12-17T09:55:56.177Z,8.13
2018-12-17T09:58:24.249Z,6.30
2018-12-17T10:00:52.309Z,5.10
2018-12-17T10:03:21.110Z,5.93
2018-12-17T10:05:49.252Z,5.30
2018-12-17T10:08:17.391Z,5.83
2018-12-17T10:10:45.669Z,5.13
2018-12-17T10:13:13.710Z,5.13
2018-12-17T10:15:41.929Z,5.50
2018-12-17T10:18:10.250Z,5.10
2018-12-17T10:20:38.392Z,4.67
2018-12-17T10:23:06.539Z,5.20
2018-12-17T10:25:34.749Z,4.57
2018-12-17T10:28:02.828Z,5.10
2018-12-17T10:30:32.666Z,5.00
2018-12-17T10:33:00.990Z,4.90
2018-12-17T10:35:29.149Z,4.47
2018-12-17T10:37:57.378Z,4.30
2018-12-17T10:40:25.697Z,5.77
2018-12-17T10:42:53.957Z,5.37
2018-12-17T10:45:22.119Z,4.80
2018-12-17T10:47:50.129Z,5.10
2018-12-17T10:50:18.317Z,4.07
2018-12-17T10:52:46.437Z,5.07
2018-12-17T10:55:14.637Z,5.77
2018-12-17T10:57:42.976Z,5.73
2018-12-17T11:00:16.687Z,4.63
2018-12-17T11:02:44.849Z,5.60
2018-12-17T11:05:15.989Z,4.93
2018-12-17T11:07:44.210Z,5.27
2018-12-17T11:10:12.286Z,5.33
2018-12-17T11:12:40.337Z,4.33
2018-12-17T11:15:10.258Z,5.97
2018-12-17T11:17:38.809Z,5.17
2018-12-17T11:20:09.200Z,5.70
2018-12-17T11:22:39.198Z,6.07
2018-12-17T11:25:07.689Z,5.90
2018-12-17T11:27:35.848Z,5.47
2018-12-17T11:30:05.597Z,6.43
2018-12-17T11:32:33.765Z,5.17
2018-12-17T11:35:01.830Z,5.50
2018-12-17T11:37:30.238Z,5.80
2018-12-17T11:39:58.288Z,6.30
2018-12-17T11:42:26.468Z,5.00
2018-12-17T11:44:54.613Z,6.43
2018-12-17T11:47:22.788Z,4.57
2018-12-17T11:49:51.029Z,6.80
2018-12-17T11:52:19.149Z,5.20
2018-12-17T11:54:47.276Z,5.40
2018-12-17T11:58:18.949Z,6.13
2018-12-17T12:00:54.240Z,4.90
2018-12-17T12:03:22.609Z,6.80
2018-12-17T12:05:50.713Z,6.27
2018-12-17T12:08:18.957Z,6.57
2018-12-17T12:10:46.988Z,4.43
2018-12-17T12:13:15.177Z,6.67
2018-12-17T12:15:43.358Z,5.60
2018-12-17T12:18:11.437Z,5.47
2018-12-17T12:20:39.428Z,5.87
2018-12-17T12:23:07.708Z,5.07
2018-12-17T12:25:35.798Z,4.73
2018-12-17T12:28:04.077Z,4.83
2018-12-17T12:30:32.249Z,4.77
2018-12-17T12:33:00.468Z,5.50
2018-12-17T12:35:28.572Z,3.50
2018-12-17T12:37:56.989Z,5.70
2018-12-17T12:40:25.649Z,4.33
2018-12-17T12:42:57.729Z,5.10
2018-12-17T12:45:25.869Z,5.10
2018-12-17T12:47:54.109Z,4.83
2018-12-17T12:50:38.989Z,4.47
2018-12-17T12:53:07.109Z,5.57
2018-12-17T12:55:35.269Z,5.43
2018-12-17T12:58:04.029Z,4.10
2018-12-17T13:00:35.709Z,4.83
2018-12-17T13:03:03.933Z,4.37
2018-12-17T13:05:35.668Z,4.17
2018-12-17T13:08:04.048Z,4.30
2018-12-17T13:10:32.119Z,4.67
2018-12-17T13:13:00.349Z,3.77
2018-12-17T13:15:28.529Z,4.47
2018-12-17T13:17:57.045Z,5.73
2018-12-17T13:20:25.471Z,5.83
2018-12-17T13:22:53.557Z,4.50
2018-12-17T13:25:26.772Z,4.30
2018-12-17T13:27:54.917Z,6.97
2018-12-17T13:30:23.229Z,5.13
2018-12-17T13:32:52.580Z,6.13
2018-12-17T13:35:20.877Z,5.27
2018-12-17T13:37:49.197Z,3.83
2018-12-17T13:40:17.369Z,5.97
2018-12-17T13:42:45.629Z,4.83
2018-12-17T13:45:16.050Z,5.30
2018-12-17T13:47:44.470Z,5.33
2018-12-17T13:50:18.590Z,6.13
2018-12-17T13:52:47.069Z,5.17
2018-12-17T13:55:15.737Z,6.23
2018-12-17T13:57:43.938Z,6.80
2018-12-17T14:00:17.377Z,7.03
2018-12-17T14:02:45.709Z,8.10
2018-12-17T14:05:13.985Z,8.43
2018-12-17T14:07:42.149Z,7.93
2018-12-17T14:10:16.457Z,8.97
2018-12-17T14:12:44.900Z,10.53
2018-12-17T14:15:13.277Z,9.17
2018-12-17T14:17:47.138Z,9.23
2018-12-17T14:20:21.057Z,9.63
2018-12-17T14:22:49.231Z,10.17
2018-12-17T14:25:17.520Z,8.03
2018-12-17T14:27:46.290Z,8.70
2018-12-17T14:44:34.790Z,11.60
2018-12-17T14:47:06.570Z,11.73
2018-12-17T14:49:34.753Z,11.03
2018-12-17T14:52:15.390Z,11.53
2018-12-17T14:58:47.370Z,12.63
2018-12-17T15:07:00.858Z,12.73
2018-12-17T15:09:51.066Z,11.90
2018-12-17T15:12:39.147Z,16.27
2018-12-17T15:15:09.530Z,11.13
2018-12-17T15:17:37.770Z,12.13
2018-12-17T15:20:06.799Z,13.00
2018-12-17T15:22:36.132Z,12.03
2018-12-17T15:25:04.843Z,11.90
2018-12-17T15:27:33.583Z,12.93
2018-12-17T15:30:01.910Z,12.63
2018-12-17T15:32:34.051Z,11.57
2018-12-17T15:35:02.506Z,12.10
2018-12-17T15:37:30.930Z,14.10
2018-12-17T15:39:59.109Z,14.40
2018-12-17T15:42:27.277Z,15.83
2018-12-17T15:44:55.370Z,16.63
2018-12-17T15:47:23.610Z,14.40
2018-12-17T15:49:52.120Z,14.93
2018-12-17T15:52:20.830Z,15.77
2018-12-17T15:54:48.929Z,15.80
2018-12-17T15:57:17.090Z,14.43
2018-12-17T15:59:45.698Z,16.20
2018-12-17T16:02:13.890Z,12.43
2018-12-17T16:04:42.241Z,19.37
2018-12-17T16:07:10.450Z,14.47
2018-12-17T16:09:38.972Z,19.93
2018-12-17T16:12:07.278Z,19.93
2018-12-17T16:14:35.378Z,16.70
2018-12-17T16:17:03.770Z,17.23
2018-12-17T16:19:33.028Z,19.70
2018-12-17T16:22:01.550Z,19.80
2018-12-17T16:24:30.078Z,22.10
2018-12-17T16:26:58.509Z,18.80
2018-12-17T16:29:27.219Z,21.37
2018-12-17T16:31:57.473Z,19.27
2018-12-17T16:34:26.138Z,21.73
2018-12-17T16:36:55.106Z,20.23
2018-12-17T16:39:23.490Z,19.60
2018-12-17T16:41:52.172Z,20.17
2018-12-17T16:44:20.618Z,18.40
2018-12-17T16:46:49.189Z,19.53
2018-12-17T16:49:17.577Z,22.57
2018-12-17T16:51:49.306Z,20.83
2018-12-17T16:54:17.660Z,19.40
2018-12-17T16:56:46.058Z,21.87
2018-12-17T16:59:14.965Z,19.63
2018-12-17T17:01:43.430Z,19.17
2018-12-17T17:04:11.878Z,18.50
2018-12-17T17:06:40.311Z,17.27
2018-12-17T17:09:08.978Z,19.33
2018-12-17T17:11:37.978Z,18.67
2018-12-17T17:14:06.450Z,19.23
2018-12-17T17:16:34.909Z,20.20
2018-12-17T17:19:03.398Z,23.20
2018-12-17T17:21:32.410Z,22.43
2018-12-17T17:24:00.878Z,23.17
2018-12-17T17:26:29.578Z,22.57
2018-12-17T17:28:58.118Z,24.97
2018-12-17T17:31:26.652Z,21.57
2018-12-17T17:33:55.130Z,22.27
2018-12-17T17:36:23.610Z,18.07
2018-12-17T17:38:52.418Z,27.50
2018-12-17T17:41:20.990Z,24.50
2018-12-17T17:43:49.379Z,23.13
2018-12-17T17:46:18.123Z,22.23
2018-12-17T17:48:46.698Z,20.83
2018-12-17T17:51:15.238Z,22.93
2018-12-17T17:53:43.750Z,21.73
2018-12-17T17:56:12.210Z,20.40
2018-12-17T17:58:41.010Z,21.83
2018-12-17T18:01:09.532Z,20.80
2018-12-17T18:03:38.286Z,23.30
2018-12-17T18:06:07.192Z,22.33
2018-12-17T18:08:35.859Z,22.77
2018-12-17T18:24:35.957Z,22.37
2018-12-17T18:29:47.110Z,25.73
2018-12-17T18:32:15.638Z,26.23
2018-12-17T18:34:44.271Z,26.63
2018-12-17T18:37:13.345Z,27.57
2018-12-17T18:39:42.629Z,26.83
2018-12-17T18:42:11.538Z,28.67
2018-12-17T18:44:40.350Z,30.00
2018-12-17T18:47:09.651Z,29.60
2018-12-17T18:49:51.189Z,28.57
2018-12-17T18:52:19.798Z,28.40
2018-12-17T18:54:49.458Z,27.67
2018-12-17T18:57:18.318Z,28.83
2018-12-17T18:59:46.850Z,29.27
2018-12-17T19:02:15.949Z,27.93
2018-12-17T19:04:48.990Z,29.97
2018-12-17T19:07:18.638Z,28.53
2018-12-17T19:09:47.140Z,29.53
2018-12-17T19:12:18.026Z,31.17
2018-12-17T19:14:46.769Z,29.73
2018-12-17T19:17:15.289Z,32.57
2018-12-17T19:19:44.057Z,32.17
2018-12-17T19:22:12.715Z,30.63
2018-12-17T19:24:41.298Z,33.07
2018-12-17T19:27:13.150Z,31.83
2018-12-17T19:29:41.790Z,30.07
2018-12-17T19:32:11.758Z,31.83
2018-12-17T19:34:47.111Z,31.77
2018-12-17T19:37:17.938Z,31.30
2018-12-17T19:39:50.330Z,30.63
2018-12-17T19:42:26.109Z,29.17
2018-12-17T19:45:00.020Z,32.80
2018-12-17T19:47:30.937Z,32.77
2018-12-17T20:04:57.357Z,34.93
2018-12-17T20:07:26.450Z,33.27
2018-12-17T20:10:00.011Z,33.83
2018-12-17T20:12:33.030Z,31.93
2018-12-17T20:15:02.878Z,32.53
2018-12-17T20:17:33.862Z,32.40
2018-12-17T20:20:03.298Z,31.37
2018-12-17T20:22:35.590Z,29.33
2018-12-17T20:25:09.550Z,30.73
2018-12-17T20:27:51.151Z,28.30
2018-12-17T20:47:44.818Z,29.83
2018-12-17T20:50:41.758Z,31.33
2018-12-17T20:53:15.850Z,31.90
2018-12-17T20:55:49.638Z,30.23
2018-12-17T20:58:32.937Z,30.67
2018-12-17T21:01:08.393Z,29.83
2018-12-17T21:03:40.580Z,29.33
2018-12-17T21:06:13.038Z,27.93
2018-12-17T21:11:36.478Z,30.97
2018-12-17T21:14:08.293Z,28.67
2018-12-17T21:16:36.898Z,31.23
2018-12-17T21:19:05.358Z,31.17
2018-12-17T21:21:33.858Z,32.30
2018-12-17T21:24:02.350Z,32.73
2018-12-17T21:26:30.938Z,32.20
2018-12-17T21:28:59.438Z,33.27
2018-12-17T21:31:28.010Z,30.00
2018-12-17T21:33:56.558Z,31.83
2018-12-17T21:36:25.138Z,29.70
2018-12-17T21:38:53.730Z,31.70
2018-12-17T21:41:22.259Z,29.90
2018-12-17T21:43:50.837Z,31.43
2018-12-17T21:46:19.397Z,29.37
2018-12-17T21:48:48.858Z,30.53
2018-12-17T21:51:18.318Z,31.40
2018-12-17T21:53:47.028Z,31.07
2018-12-17T21:56:15.429Z,30.87
2018-12-17T21:58:43.938Z,29.67
2018-12-17T22:01:16.110Z,28.37
2018-12-17T22:03:44.537Z,30.67
2018-12-17T22:06:12.949Z,29.73
2018-12-17T22:08:41.425Z,29.33
2018-12-17T22:11:09.883Z,27.97
2018-12-17T22:13:38.237Z,28.63
2018-12-17T22:16:06.557Z,31.93
2018-12-17T22:18:35.217Z,28.60
2018-12-17T22:21:03.309Z,30.27
2018-12-17T22:23:31.677Z,29.37
2018-12-17T22:25:59.957Z,31.87
2018-12-17T22:28:28.150Z,30.87
2018-12-17T22:30:56.805Z,31.30
2018-12-17T22:33:24.958Z,28.10
2018-12-17T22:35:53.069Z,27.37
2018-12-17T22:38:21.309Z,30.07
2018-12-17T22:40:49.529Z,29.93
2018-12-17T22:43:17.671Z,30.80
2018-12-17T22:45:45.728Z,29.60
2018-12-17T22:48:13.957Z,29.73
2018-12-17T22:50:42.172Z,27.27
2018-12-17T22:53:10.450Z,27.93
2018-12-17T22:55:38.548Z,27.80
2018-12-17T22:58:06.748Z,28.70
2018-12-17T23:00:34.948Z,28.47
2018-12-17T23:03:03.175Z,28.73
2018-12-17T23:05:31.336Z,28.60
2018-12-17T23:07:59.828Z,24.23
2018-12-17T23:10:44.835Z,28.60
2018-12-17T23:13:23.875Z,28.40
2018-12-17T23:16:03.112Z,28.13
2018-12-17T23:18:29.857Z,28.30
2018-12-17T23:20:58.008Z,27.30
2018-12-17T23:23:26.378Z,29.00
2018-12-17T23:25:54.516Z,28.93
2018-12-17T23:28:22.696Z,27.83
2018-12-17T23:30:50.796Z,27.50
2018-12-17T23:33:18.868Z,26.20
2018-12-17T23:35:46.958Z,27.13
2018-12-17T23:38:15.016Z,28.80
2018-12-17T23:40:43.151Z,29.90
2018-12-17T23:43:11.316Z,27.57
2018-12-17T23:45:39.367Z,26.63
2018-12-17T23:48:07.467Z,27.57
2018-12-17T23:50:35.715Z,25.13
2018-12-17T23:53:03.816Z,25.97
2018-12-17T23:55:31.998Z,25.67
2018-12-17T23:58:00.068Z,25.30
